Time;durP1;ratioP1;P1;durP2;ratioP2;P2;SDS_P1;SDS_P2;PMS_P1;PMS_P2;Temp;Humidity;BMP_temperature;BMP_pressure;BME280_temperature;BME280_humidity;BME280_pressure;Samples;Min_cycle;Max_cycle;Signal;HPM_P1;HPM_P2
2021/10/28 00:14:34;;;;;;;17.30;11.45;;;6.60;93.40;;;;;;4995293;28;20030;-72
2021/10/28 00:17:08;;;;;;;18.30;11.50;;;6.60;93.40;;;;;;4995079;28;20638;-71
2021/10/28 00:19:34;;;;;;;17.10;10.93;;;6.50;93.40;;;;;;4996203;28;20022;-72
2021/10/28 00:22:01;;;;;;;18.00;11.93;;;6.40;93.40;;;;;;4992500;28;20451;-72
2021/10/28 00:24:26;;;;;;;17.58;11.10;;;6.40;93.50;;;;;;4991590;28;20023;-72
2021/10/28 00:26:52;;;;;;;21.75;13.07;;;6.40;93.50;;;;;;4992716;28;20153;-72
2021/10/28 00:29:19;;;;;;;23.02;12.27;;;6.30;93.50;;;;;;4975502;28;20022;-71
2021/10/28 00:31:47;;;;;;;24.38;14.02;;;6.30;93.50;;;;;;4975867;28;20057;-69
2021/10/28 00:34:14;;;;;;;24.05;13.77;;;6.30;93.60;;;;;;4991701;28;20023;-72
2021/10/28 00:36:42;;;;;;;26.48;14.13;;;6.20;93.60;;;;;;4992345;28;20038;-70
2021/10/28 00:39:08;;;;;;;22.05;13.35;;;6.20;93.60;;;;;;4991611;28;20044;-72
2021/10/28 00:41:36;;;;;;;23.08;12.40;;;6.20;93.60;;;;;;4975611;28;20030;-72
2021/10/28 00:44:03;;;;;;;35.50;10.55;;;6.20;93.70;;;;;;4973344;28;20069;-72
2021/10/28 00:46:31;;;;;;;40.70;10.20;;;6.10;93.60;;;;;;4992720;28;20030;-72
2021/10/28 00:48:58;;;;;;;31.70;10.15;;;6.00;93.60;;;;;;4992373;28;20399;-72
2021/10/28 00:51:26;;;;;;;32.45;10.48;;;5.90;93.60;;;;;;4992107;28;20113;-70
2021/10/28 00:53:53;;;;;;;35.30;11.18;;;5.80;93.60;;;;;;4990864;28;20022;-70
2021/10/28 00:56:21;;;;;;;21.27;10.77;;;5.70;93.60;;;;;;4992700;28;20037;-70
2021/10/28 00:58:47;;;;;;;27.40;11.63;;;5.70;93.70;;;;;;4991768;28;20023;-72
2021/10/28 01:01:13;;;;;;;22.95;12.43;;;5.60;93.80;;;;;;4975495;28;20040;-72
2021/10/28 01:03:39;;;;;;;24.02;12.80;;;5.50;93.80;;;;;;4990355;28;20054;-72
2021/10/28 01:06:07;;;;;;;22.33;12.73;;;5.50;93.90;;;;;;4991725;28;20456;-72
2021/10/28 01:08:38;;;;;;;24.25;14.23;;;5.50;94.00;;;;;;4992645;28;20029;-70
2021/10/28 01:11:06;;;;;;;22.45;13.52;;;5.50;94.00;;;;;;4974433;28;20120;-72
2021/10/28 01:13:32;;;;;;;24.45;12.73;;;5.50;94.00;;;;;;4991497;28;20038;-71
2021/10/28 01:15:58;;;;;;;25.45;13.25;;;5.50;94.00;;;;;;4991224;28;20030;-72
2021/10/28 01:18:24;;;;;;;21.13;12.95;;;5.40;94.00;;;;;;4992128;28;20487;-72
2021/10/28 01:20:52;;;;;;;22.27;13.32;;;5.40;94.10;;;;;;4988839;28;20070;-72
2021/10/28 01:23:21;;;;;;;21.05;12.38;;;5.40;94.10;;;;;;4973425;28;20038;-72
2021/10/28 01:25:58;;;;;;;18.48;11.57;;;5.40;94.10;;;;;;4970605;28;20027;-72
2021/10/28 01:28:26;;;;;;;19.83;11.98;;;5.30;94.10;;;;;;4993766;28;20050;-72
2021/10/28 01:30:55;;;;;;;20.80;12.57;;;5.30;94.10;;;;;;4992740;28;20036;-72
2021/10/28 01:33:22;;;;;;;19.67;12.07;;;5.20;94.10;;;;;;4992179;28;20030;-71
2021/10/28 01:35:49;;;;;;;20.20;13.02;;;5.20;94.10;;;;;;4992625;28;20425;-72
2021/10/28 01:38:16;;;;;;;19.83;12.90;;;5.20;94.10;;;;;;4992952;28;20053;-72
2021/10/28 01:40:51;;;;;;;20.58;13.02;;;5.10;94.10;;;;;;4993533;28;20026;-72
2021/10/28 01:43:18;;;;;;;19.10;13.00;;;5.10;94.10;;;;;;4990431;28;20117;-72
2021/10/28 01:45:43;;;;;;;19.83;13.18;;;5.10;94.10;;;;;;4967548;28;20081;-70
2021/10/28 01:48:09;;;;;;;25.70;12.52;;;5.10;94.10;;;;;;4993008;28;20026;-72
2021/10/28 01:50:35;;;;;;;22.83;13.52;;;5.00;94.10;;;;;;4976302;28;20027;-72
2021/10/28 01:53:01;;;;;;;23.88;13.77;;;5.00;94.10;;;;;;4990278;28;20391;-72
2021/10/28 01:55:26;;;;;;;25.38;14.82;;;5.00;94.20;;;;;;4996708;28;20100;-72
2021/10/28 01:57:52;;;;;;;25.27;14.18;;;5.00;94.20;;;;;;4994666;28;20039;-72
2021/10/28 02:00:22;;;;;;;23.65;13.35;;;5.00;94.20;;;;;;4975391;28;20809;-72
2021/10/28 02:02:49;;;;;;;24.95;14.20;;;5.00;94.30;;;;;;4992345;28;20092;-73
2021/10/28 02:05:17;;;;;;;25.83;14.43;;;4.90;94.20;;;;;;4974736;28;20026;-72
2021/10/28 02:07:43;;;;;;;23.00;13.05;;;5.00;94.30;;;;;;4992894;28;20530;-72
2021/10/28 02:10:10;;;;;;;27.25;13.15;;;4.90;94.20;;;;;;4993163;28;20030;-72
2021/10/28 02:12:38;;;;;;;31.30;13.30;;;4.90;94.30;;;;;;4991704;28;20398;-70
2021/10/28 02:15:06;;;;;;;25.63;13.07;;;4.90;94.30;;;;;;4996219;28;20018;-71
2021/10/28 02:17:32;;;;;;;29.70;12.35;;;4.90;94.40;;;;;;4993548;28;20023;-72
2021/10/28 02:19:58;;;;;;;26.58;13.82;;;4.90;94.40;;;;;;4977801;28;20041;-70
2021/10/28 02:22:24;;;;;;;26.17;13.48;;;4.90;94.40;;;;;;5071371;23;20037;31
2021/10/28 02:24:50;;;;;;;28.20;13.35;;;4.80;94.40;;;;;;4970180;28;20151;-71
2021/10/28 02:27:16;;;;;;;30.92;13.65;;;4.80;94.40;;;;;;4964300;28;20035;-71
2021/10/28 02:29:42;;;;;;;29.00;14.00;;;4.80;94.50;;;;;;4967291;28;20026;-71
2021/10/28 02:32:09;;;;;;;27.23;14.27;;;4.80;94.60;;;;;;4971651;28;20069;-70
2021/10/28 02:34:38;;;;;;;27.17;14.90;;;4.80;94.60;;;;;;4969073;28;20037;-71
2021/10/28 02:37:05;;;;;;;27.70;14.55;;;4.80;94.60;;;;;;4971059;28;20077;-71
2021/10/28 02:39:31;;;;;;;27.38;15.07;;;4.80;94.60;;;;;;4954127;28;20089;-70
2021/10/28 02:41:56;;;;;;;24.17;13.55;;;4.80;94.70;;;;;;4970516;28;20027;-69
2021/10/28 02:44:22;;;;;;;23.90;11.85;;;4.90;94.90;;;;;;4960344;28;20045;-71
2021/10/28 02:46:48;;;;;;;25.00;11.13;;;4.90;94.80;;;;;;4971382;28;20023;-71
2021/10/28 02:49:16;;;;;;;64.90;11.48;;;4.90;94.60;;;;;;4954231;28;20031;-71
2021/10/28 02:51:46;;;;;;;81.03;11.10;;;4.80;94.60;;;;;;4979492;28;20015;-71
2021/10/28 02:54:13;;;;;;;19.58;11.27;;;4.70;94.50;;;;;;4972025;28;20031;-71
2021/10/28 02:56:38;;;;;;;35.17;11.35;;;4.70;94.60;;;;;;4971207;28;20383;-71
2021/10/28 02:59:04;;;;;;;24.23;12.02;;;4.70;94.80;;;;;;4971181;28;20042;-71
2021/10/28 03:01:29;;;;;;;31.20;11.50;;;4.70;94.90;;;;;;4962982;28;20505;-71
2021/10/28 03:03:55;;;;;;;38.05;13.85;;;4.80;95.00;;;;;;4962203;28;20034;-71
2021/10/28 03:06:21;;;;;;;57.15;13.25;;;4.80;95.10;;;;;;4953687;28;20045;-70
2021/10/28 03:08:49;;;;;;;28.73;13.65;;;4.90;95.10;;;;;;4971012;28;20023;-71
2021/10/28 03:11:15;;;;;;;28.13;12.88;;;4.90;95.10;;;;;;4976553;28;20113;-71
2021/10/28 03:13:41;;;;;;;32.72;13.18;;;4.90;95.10;;;;;;4976993;28;20105;-71
2021/10/28 03:16:27;;;;;;;48.83;14.88;;;5.00;95.10;;;;;;4954083;28;20104;-71
2021/10/28 03:27:09;;;;;;;34.15;14.82;;;5.00;95.10;;;;;;4948469;28;20043;-71
2021/10/28 03:29:35;;;;;;;29.85;14.05;;;5.10;95.10;;;;;;4953545;28;20035;-71
2021/10/28 03:32:00;;;;;;;25.90;14.18;;;5.10;95.10;;;;;;4970621;28;20033;-71
2021/10/28 03:34:26;;;;;;;27.73;15.23;;;5.10;95.20;;;;;;4970173;28;20042;-71
2021/10/28 03:42:37;;;;;;;29.25;14.55;;;5.30;95.30;;;;;;4970692;28;20070;-71
2021/10/28 04:17:49;;;;;;;40.67;15.52;;;5.80;95.50;;;;;;4980489;28;20041;-71
2021/10/28 04:31:01;;;;;;;35.35;15.48;;;5.80;95.30;;;;;;4966443;28;20104;-70
2021/10/28 04:33:28;;;;;;;37.95;16.15;;;5.70;95.30;;;;;;4955538;28;20745;-70
2021/10/28 04:35:53;;;;;;;34.13;14.82;;;5.70;95.40;;;;;;4978991;28;20035;-70
2021/10/28 04:38:19;;;;;;;33.00;15.60;;;5.70;95.40;;;;;;4973744;28;20085;-72
2021/10/28 04:40:45;;;;;;;40.70;16.55;;;5.70;95.50;;;;;;4977325;28;20058;-71
2021/10/28 04:43:11;;;;;;;38.97;16.60;;;5.70;95.60;;;;;;4972409;28;20038;-71
2021/10/28 04:45:36;;;;;;;36.33;16.05;;;5.80;95.60;;;;;;4955602;28;20042;-70
2021/10/28 04:48:02;;;;;;;32.88;16.15;;;5.80;95.60;;;;;;4956344;28;20023;-72
2021/10/28 04:50:28;;;;;;;39.33;16.50;;;5.80;95.60;;;;;;4973616;28;20078;-70
2021/10/28 04:52:53;;;;;;;47.45;17.17;;;5.80;95.60;;;;;;4972366;28;20042;-71
2021/10/28 04:55:19;;;;;;;41.83;16.27;;;5.80;95.60;;;;;;4972932;28;20027;-70
2021/10/28 04:57:45;;;;;;;46.53;17.92;;;5.80;95.70;;;;;;4972925;28;22359;-71
2021/10/28 05:00:11;;;;;;;39.25;16.95;;;5.80;95.70;;;;;;4958750;28;20436;-69
2021/10/28 05:02:37;;;;;;;51.00;18.23;;;5.80;95.90;;;;;;4977713;28;20152;-71
2021/10/28 05:05:03;;;;;;;47.65;18.30;;;5.80;95.90;;;;;;4956908;28;20145;-71
2021/10/28 05:07:28;;;;;;;50.70;17.85;;;5.80;95.90;;;;;;4955188;28;20041;-70
2021/10/28 05:09:54;;;;;;;49.90;18.35;;;5.80;95.90;;;;;;4976784;28;20066;-71
2021/10/28 05:12:19;;;;;;;45.92;17.83;;;5.90;95.90;;;;;;4973285;28;20077;-71
2021/10/28 05:14:45;;;;;;;50.85;19.35;;;5.90;96.00;;;;;;4971967;28;20034;-71
2021/10/28 05:17:11;;;;;;;46.22;18.65;;;5.90;96.00;;;;;;4955411;28;20082;-71
2021/10/28 05:19:39;;;;;;;47.05;18.80;;;5.90;96.00;;;;;;4952874;28;20026;-70
2021/10/28 05:22:06;;;;;;;47.35;18.50;;;5.90;96.00;;;;;;4953653;28;20133;-70
2021/10/28 05:24:32;;;;;;;50.15;19.27;;;5.90;96.10;;;;;;4972233;28;20509;-70
2021/10/28 05:26:58;;;;;;;50.08;19.70;;;6.00;96.20;;;;;;4971755;28;20031;-70
2021/10/28 05:29:24;;;;;;;52.25;19.38;;;6.00;96.20;;;;;;4955868;28;20452;-71
2021/10/28 05:31:49;;;;;;;51.47;20.23;;;6.00;96.20;;;;;;4955380;28;20052;-71
2021/10/28 05:34:15;;;;;;;46.97;19.48;;;6.00;96.20;;;;;;4953391;28;20039;-70
2021/10/28 05:36:41;;;;;;;51.00;21.35;;;6.00;96.20;;;;;;4972144;28;20038;-70
2021/10/28 05:39:06;;;;;;;45.10;19.02;;;6.10;96.20;;;;;;4956169;28;20022;-70
2021/10/28 05:41:32;;;;;;;53.10;20.23;;;6.10;96.20;;;;;;4980928;28;20101;-70
2021/10/28 05:43:57;;;;;;;54.47;20.42;;;6.10;96.20;;;;;;4971630;28;20027;-71
2021/10/28 05:46:23;;;;;;;48.95;18.60;;;6.10;96.20;;;;;;4972806;28;20058;-70
2021/10/28 05:48:49;;;;;;;52.67;19.55;;;6.20;96.30;;;;;;4973363;28;20395;-71
2021/10/28 05:51:16;;;;;;;53.95;20.90;;;6.20;96.30;;;;;;4972561;28;20436;-71
2021/10/28 05:53:41;;;;;;;49.90;18.65;;;6.20;96.30;;;;;;4971549;28;20042;-71
2021/10/28 05:56:07;;;;;;;51.38;19.30;;;6.20;96.30;;;;;;4961608;28;20038;-71
2021/10/28 05:58:32;;;;;;;53.22;20.48;;;6.30;96.30;;;;;;4973854;28;20484;-71
2021/10/28 06:01:01;;;;;;;54.00;20.60;;;6.30;96.30;;;;;;4965784;28;20061;-72
2021/10/28 06:03:29;;;;;;;48.63;19.65;;;6.30;96.30;;;;;;4971185;28;20034;-71
2021/10/28 06:05:54;;;;;;;50.65;20.30;;;6.40;96.40;;;;;;4972024;28;20066;-71
2021/10/28 06:08:20;;;;;;;58.47;20.48;;;6.40;96.40;;;;;;4971174;28;20097;-71
2021/10/28 06:10:46;;;;;;;58.95;20.38;;;6.40;96.30;;;;;;4972868;28;20029;-70
2021/10/28 06:13:12;;;;;;;53.63;19.88;;;6.40;96.60;;;;;;4971506;28;20035;-70
2021/10/28 06:15:37;;;;;;;55.25;20.30;;;6.40;96.30;;;;;;4954604;28;20399;-70
2021/10/28 06:20:42;;;;;;;56.53;21.10;;;6.50;96.40;;;;;;4971302;28;20034;-70
2021/10/28 06:23:07;;;;;;;58.88;20.50;;;6.40;96.40;;;;;;4971318;28;20096;-71
2021/10/28 06:25:34;;;;;;;55.10;20.38;;;6.50;96.50;;;;;;4971700;28;20030;-71
2021/10/28 06:28:00;;;;;;;55.92;21.00;;;6.50;96.50;;;;;;4962942;28;20021;-72
2021/10/28 06:30:25;;;;;;;59.10;21.13;;;6.60;96.50;;;;;;4988065;28;20019;-72
2021/10/28 06:32:55;;;;;;;65.30;23.42;;;6.60;96.50;;;;;;4971224;28;20057;-72
2021/10/28 06:35:21;;;;;;;50.65;20.95;;;6.60;96.60;;;;;;4955270;28;20434;-71
2021/10/28 06:37:49;;;;;;;57.67;20.55;;;6.70;96.70;;;;;;4976053;28;20042;-73
2021/10/28 06:40:17;;;;;;;53.40;21.10;;;6.70;96.60;;;;;;4984228;28;20023;-71
2021/10/28 06:42:44;;;;;;;55.60;21.02;;;6.70;96.60;;;;;;4971345;28;20027;-71
2021/10/28 06:45:10;;;;;;;63.10;21.27;;;6.70;96.70;;;;;;4972303;28;20057;-72
2021/10/28 06:47:36;;;;;;;52.45;20.50;;;6.70;96.70;;;;;;4954977;28;20459;-72
2021/10/28 06:50:06;;;;;;;58.40;21.38;;;6.80;96.70;;;;;;4955056;28;20037;-72
2021/10/28 06:52:48;;;;;;;54.38;21.38;;;6.80;96.70;;;;;;4971849;28;20043;-72
2021/10/28 06:55:24;;;;;;;57.25;22.10;;;6.80;96.70;;;;;;4956427;28;20019;-77
2021/10/28 07:02:15;;;;;;;51.40;19.95;;;6.90;96.80;;;;;;4960318;28;20022;-71
2021/10/28 07:03:30;;;;;;;54.78;20.10;;;6.90;96.80;;;;;;4990598;28;20084;-71
2021/10/28 07:06:03;;;;;;;50.50;20.70;;;6.90;96.80;;;;;;4987746;28;20522;-72
2021/10/28 07:08:28;;;;;;;;;;;6.90;96.80;;;;;;4955069;28;20121;-71
2021/10/28 07:10:56;;;;;;;53.90;20.40;;;7.00;96.70;;;;;;4954813;28;20056;-72
2021/10/28 07:13:29;;;;;;;52.00;20.30;;;7.00;96.70;;;;;;4970712;28;20050;-73
2021/10/28 07:15:59;;;;;;;50.65;19.98;;;7.00;96.80;;;;;;4954343;28;20410;-72
2021/10/28 07:18:37;;;;;;;49.35;19.60;;;7.00;96.80;;;;;;4980794;28;20088;-72
2021/10/28 07:23:47;;;;;;;57.33;20.27;;;7.10;96.90;;;;;;4970411;28;20031;-72
2021/10/28 08:19:26;;;;;;;42.90;20.85;;;7.70;97.00;;;;;;4974977;28;20062;-72
2021/10/28 08:21:57;;;;;;;45.28;21.27;;;7.70;97.10;;;;;;4974222;28;20030;-70
2021/10/28 08:29:39;;;;;;;39.40;19.35;;;7.80;97.00;;;;;;4970156;28;20086;-72
2021/10/28 08:32:06;;;;;;;39.33;19.27;;;7.80;96.90;;;;;;4973602;28;20018;-71
2021/10/28 08:34:34;;;;;;;40.28;18.35;;;7.80;97.00;;;;;;4968661;28;20030;-71
2021/10/28 08:37:09;;;;;;;39.17;18.83;;;7.80;97.00;;;;;;4962307;28;20034;-72
2021/10/28 08:39:35;;;;;;;35.88;18.10;;;7.80;97.10;;;;;;4974537;28;20545;-71
2021/10/28 08:42:07;;;;;;;37.42;17.90;;;7.90;97.00;;;;;;4956306;28;20030;-71
2021/10/28 08:44:35;;;;;;;40.33;18.65;;;7.90;97.10;;;;;;4972903;28;20391;-72
2021/10/28 08:47:02;;;;;;;34.42;17.05;;;7.90;97.00;;;;;;4956966;28;20038;-71
2021/10/28 08:49:41;;;;;;;36.63;17.77;;;8.00;97.10;;;;;;4973860;28;20027;-71
2021/10/28 08:55:03;;;;;;;38.80;18.92;;;8.00;97.10;;;;;;4972915;28;20081;-71
2021/10/28 08:57:54;;;;;;;37.97;18.60;;;8.10;97.10;;;;;;4957909;28;20552;-71
2021/10/28 09:25:44;;;;;;;31.15;16.75;;;8.30;97.00;;;;;;4973618;28;20045;-73
2021/10/28 09:28:42;;;;;;;35.42;17.88;;;8.30;97.00;;;;;;4973576;28;20034;-73
2021/10/28 09:31:13;;;;;;;30.90;15.77;;;8.40;97.10;;;;;;4937009;29;20086;-74
2021/10/28 09:34:06;;;;;;;30.38;16.10;;;8.40;97.00;;;;;;4965786;28;20055;-72
2021/10/28 09:48:23;;;;;;;32.65;16.67;;;8.60;96.90;;;;;;4973054;28;20029;-71
2021/10/28 09:50:34;;;;;;;30.83;16.05;;;8.60;96.90;;;;;;4946473;29;20212;-71
2021/10/28 09:58:31;;;;;;;24.05;14.70;;;8.80;97.00;;;;;;4972549;28;20030;-74
2021/10/28 10:00:58;;;;;;;;;;;8.90;97.00;;;;;;4972863;28;20106;-70
2021/10/28 10:03:30;;;;;;;27.52;15.35;;;9.00;96.80;;;;;;4971145;28;19921;-72
2021/10/28 10:06:04;;;;;;;28.77;15.68;;;9.00;96.80;;;;;;4967277;28;20027;-70
2021/10/28 10:08:31;;;;;;;23.33;14.70;;;9.10;96.80;;;;;;4945702;28;20080;-70
2021/10/28 10:10:57;;;;;;;27.42;15.27;;;9.10;96.70;;;;;;4973051;28;20027;-71
2021/10/28 10:13:24;;;;;;;26.15;15.23;;;9.20;96.70;;;;;;4971814;28;20104;-71
2021/10/28 10:15:54;;;;;;;25.13;14.73;;;9.30;96.70;;;;;;4972276;28;20027;-71
2021/10/28 10:18:23;;;;;;;29.73;15.13;;;9.30;96.60;;;;;;4972108;28;20054;-71
2021/10/28 10:20:54;;;;;;;25.67;14.80;;;9.40;96.60;;;;;;4972558;28;20031;-73
2021/10/28 11:29:59;;;;;;;18.50;11.85;;;11.40;95.00;;;;;;4954157;28;20462;-74
2021/10/28 12:48:26;;;;;;;14.25;10.77;;;14.30;91.80;;;;;;4955175;28;20058;-73
2021/10/28 12:53:50;;;;;;;15.13;10.75;;;14.50;91.60;;;;;;4968906;28;20069;-73
2021/10/28 13:02:57;;;;;;;14.20;10.25;;;14.90;91.30;;;;;;4970744;28;20089;-73
2021/10/28 13:06:09;;;;;;;15.75;10.95;;;15.00;91.00;;;;;;4970204;28;20045;-73
2021/10/28 13:36:13;;;;;;;13.30;10.35;;;16.10;90.00;;;;;;4970826;28;20157;-74
2021/10/28 14:22:29;;;;;;;16.95;10.95;;;16.70;86.80;;;;;;4968348;28;20731;-66
2021/10/28 15:30:01;;;;;;;21.13;12.25;;;14.00;88.30;;;;;;5007403;28;20029;-70
2021/10/28 15:33:36;;;;;;;17.48;12.40;;;13.90;88.40;;;;;;5006775;28;20053;-68
2021/10/28 15:52:17;;;;;;;21.05;13.00;;;13.40;89.40;;;;;;4952054;28;20763;-70
2021/10/28 16:24:25;;;;;;;23.27;14.20;;;12.30;90.50;;;;;;5006607;28;20040;-75
2021/10/28 16:26:51;;;;;;;26.00;15.93;;;12.20;90.50;;;;;;5006694;28;20021;-72
2021/10/28 16:29:18;;;;;;;24.58;15.65;;;12.20;90.50;;;;;;5003854;28;20030;-72
2021/10/28 16:31:44;;;;;;;29.77;17.00;;;12.10;90.60;;;;;;5001401;28;20032;-71
2021/10/28 16:34:11;;;;;;;27.65;16.63;;;12.00;90.70;;;;;;4999004;28;20026;-71
2021/10/28 16:36:37;;;;;;;27.52;16.52;;;11.90;90.70;;;;;;5009576;28;20049;-70
2021/10/28 16:39:07;;;;;;;26.98;16.38;;;11.80;90.70;;;;;;5009640;28;20037;-69
2021/10/28 16:41:32;;;;;;;28.67;16.75;;;11.70;90.80;;;;;;4991734;28;20141;-69
2021/10/28 16:43:58;;;;;;;28.00;15.55;;;11.70;90.90;;;;;;4997136;28;20106;-69
2021/10/28 16:46:24;;;;;;;33.15;16.77;;;11.60;90.90;;;;;;5000786;28;20041;-69
2021/10/28 16:48:49;;;;;;;29.17;16.70;;;11.50;90.90;;;;;;5002031;28;20041;-70
2021/10/28 16:51:16;;;;;;;30.33;16.38;;;11.40;91.00;;;;;;5007363;28;20855;-69
2021/10/28 16:53:43;;;;;;;25.23;15.60;;;11.30;91.10;;;;;;5001047;28;20045;-70
2021/10/28 16:56:09;;;;;;;27.85;15.15;;;11.20;91.10;;;;;;5008179;28;20113;-71
2021/10/28 16:58:35;;;;;;;25.70;16.02;;;11.10;91.20;;;;;;5006516;28;20030;-72
2021/10/28 17:01:01;;;;;;;26.58;17.25;;;11.00;91.30;;;;;;5006968;28;20037;-71
2021/10/28 17:03:27;;;;;;;31.17;16.35;;;10.90;91.30;;;;;;4985507;28;20034;-71
2021/10/28 17:05:53;;;;;;;29.17;16.50;;;10.80;91.70;;;;;;4985577;28;20026;-71
2021/10/28 17:08:19;;;;;;;27.67;15.75;;;10.80;91.50;;;;;;4991016;28;20053;-69
2021/10/28 17:10:45;;;;;;;26.77;16.33;;;10.70;91.50;;;;;;4990959;28;20030;-71
2021/10/28 17:13:12;;;;;;;26.02;16.27;;;10.60;91.60;;;;;;5003438;28;20493;-72
2021/10/28 17:15:37;;;;;;;29.15;16.83;;;10.50;91.70;;;;;;5004770;28;20100;-73
2021/10/28 17:18:03;;;;;;;30.60;17.60;;;10.40;91.80;;;;;;4987743;28;20478;-72
2021/10/28 17:20:34;;;;;;;29.77;17.75;;;10.40;91.80;;;;;;4997661;28;20018;-74
2021/10/28 17:23:00;;;;;;;32.80;17.98;;;10.40;91.90;;;;;;4990720;28;20359;-73
2021/10/28 17:25:26;;;;;;;29.60;17.00;;;10.30;91.90;;;;;;5004839;28;20037;-70
2021/10/28 17:27:52;;;;;;;30.45;18.15;;;10.20;92.00;;;;;;5005701;28;20034;-69
2021/10/28 17:30:18;;;;;;;30.42;18.10;;;10.10;92.10;;;;;;5007637;28;20429;-69
2021/10/28 17:32:45;;;;;;;33.20;18.67;;;10.10;92.20;;;;;;4983771;28;20114;-69
2021/10/28 17:35:12;;;;;;;30.90;18.55;;;10.10;92.30;;;;;;4999690;28;20029;-69
2021/10/28 17:37:38;;;;;;;32.83;17.88;;;10.00;92.30;;;;;;4994335;28;20034;-70
2021/10/28 17:40:04;;;;;;;30.73;18.08;;;10.00;92.40;;;;;;4988676;28;20032;-69
2021/10/28 17:42:30;;;;;;;33.33;17.83;;;10.00;92.50;;;;;;4991484;28;20058;-70
2021/10/28 17:44:57;;;;;;;29.08;17.65;;;10.00;92.50;;;;;;5000021;28;20434;-69
2021/10/28 17:47:24;;;;;;;35.85;18.13;;;9.90;92.50;;;;;;4990837;28;20537;-69
2021/10/28 17:49:51;;;;;;;33.97;18.95;;;9.90;92.60;;;;;;5001273;28;20094;-69
2021/10/28 17:52:18;;;;;;;31.98;18.77;;;9.80;92.60;;;;;;5007628;28;20084;-69
2021/10/28 17:54:44;;;;;;;35.65;19.58;;;9.80;92.70;;;;;;5005964;28;20052;-71
2021/10/28 17:57:12;;;;;;;36.13;20.10;;;9.70;92.80;;;;;;5003311;28;20764;-71
2021/10/28 17:59:38;;;;;;;34.60;20.05;;;9.70;92.80;;;;;;4997421;28;20034;-70
2021/10/28 18:02:05;;;;;;;38.53;20.63;;;9.70;92.80;;;;;;4990337;28;20575;-72
2021/10/28 18:04:31;;;;;;;31.08;18.65;;;9.60;92.80;;;;;;5003928;28;20116;-71
2021/10/28 18:06:58;;;;;;;33.72;18.77;;;9.60;92.90;;;;;;5002205;28;20494;-71
2021/10/28 18:09:24;;;;;;;36.40;18.70;;;9.50;92.90;;;;;;5006474;28;20103;-71
2021/10/28 18:11:54;;;;;;;36.60;19.10;;;9.50;93.00;;;;;;5007628;28;20080;-69
2021/10/28 18:14:21;;;;;;;33.70;18.35;;;9.50;93.10;;;;;;4984068;28;20036;-70
2021/10/28 18:16:46;;;;;;;34.70;19.52;;;9.40;93.00;;;;;;5004682;28;20022;-71
2021/10/28 18:19:12;;;;;;;38.00;20.48;;;9.30;93.00;;;;;;5003278;28;20029;-71
2021/10/28 18:21:41;;;;;;;35.00;18.73;;;9.30;93.10;;;;;;4987039;28;20117;-70
2021/10/28 18:24:07;;;;;;;38.38;20.63;;;9.20;93.10;;;;;;5006966;28;20034;-71
2021/10/28 18:26:32;;;;;;;33.17;19.20;;;9.20;93.20;;;;;;4985415;28;20030;-71
2021/10/28 18:28:58;;;;;;;30.67;18.30;;;9.10;93.20;;;;;;4993784;28;20050;-70
2021/10/28 18:31:26;;;;;;;36.20;20.02;;;9.10;93.30;;;;;;5003678;28;20060;-70
2021/10/28 18:33:52;;;;;;;33.95;18.60;;;9.00;93.30;;;;;;4991999;28;20666;-72
2021/10/28 18:36:18;;;;;;;39.15;20.33;;;9.00;93.40;;;;;;4998193;28;20034;-71
2021/10/28 18:38:45;;;;;;;35.28;19.45;;;8.90;93.40;;;;;;4985153;28;20037;-70
2021/10/28 18:41:16;;;;;;;37.20;20.17;;;8.90;93.40;;;;;;5002094;28;20486;-71
2021/10/28 18:43:43;;;;;;;34.10;19.45;;;8.90;93.50;;;;;;5002873;28;20034;-70
2021/10/28 18:46:09;;;;;;;34.22;19.88;;;8.90;93.60;;;;;;4990260;28;20677;-70
2021/10/28 18:48:35;;;;;;;34.85;20.48;;;8.90;93.60;;;;;;5008647;28;20029;-70
2021/10/28 18:51:01;;;;;;;36.90;20.42;;;8.90;93.60;;;;;;4998522;28;20040;-70
2021/10/28 18:53:27;;;;;;;38.00;21.08;;;8.90;93.60;;;;;;4981026;28;20077;-71
2021/10/28 18:55:54;;;;;;;45.85;25.45;;;8.80;93.70;;;;;;5004380;28;20026;-71
2021/10/28 18:58:21;;;;;;;38.03;20.58;;;8.80;93.70;;;;;;5006222;28;20470;-71
2021/10/28 19:00:51;;;;;;;36.58;20.40;;;8.70;93.70;;;;;;5008138;28;20072;-71
2021/10/28 19:03:18;;;;;;;38.55;20.45;;;8.70;93.70;;;;;;4985090;28;20083;-70
2021/10/28 19:05:44;;;;;;;33.13;19.27;;;8.70;93.70;;;;;;4979187;28;20473;-71
2021/10/28 19:08:10;;;;;;;31.77;18.98;;;8.60;93.80;;;;;;5007943;28;20105;-71
2021/10/28 19:10:35;;;;;;;37.00;19.77;;;8.60;93.80;;;;;;5000816;28;20018;-72
2021/10/28 19:13:02;;;;;;;35.40;19.88;;;8.60;93.80;;;;;;4985629;28;20026;-70
2021/10/28 19:15:27;;;;;;;34.60;18.58;;;8.50;93.80;;;;;;5008306;28;20040;-71
2021/10/28 19:17:53;;;;;;;37.95;20.25;;;8.40;93.80;;;;;;5005309;28;20033;-70
2021/10/28 19:20:20;;;;;;;36.50;19.73;;;8.40;93.80;;;;;;4985908;28;20080;-70
2021/10/28 19:22:46;;;;;;;38.38;20.98;;;8.30;93.90;;;;;;5005806;28;20026;-72
2021/10/28 19:25:12;;;;;;;50.05;22.50;;;8.20;94.00;;;;;;5000723;28;20034;-70
2021/10/28 19:27:38;;;;;;;37.58;21.05;;;8.30;94.10;;;;;;5010677;28;20157;-71
2021/10/28 19:30:53;;;;;;;36.55;19.90;;;8.20;94.00;;;;;;5000938;28;20050;-70
2021/10/28 19:32:52;;;;;;;40.08;21.33;;;8.20;94.10;;;;;;4988221;28;20033;-70
2021/10/28 19:35:21;;;;;;;36.90;20.70;;;8.10;94.00;;;;;;5010562;28;20105;-72
2021/10/28 19:37:55;;;;;;;34.55;20.02;;;8.10;94.00;;;;;;4990774;28;20069;-71
2021/10/28 19:48:00;;;;;;;39.95;19.77;;;8.00;94.20;;;;;;5009228;28;20049;-70
2021/10/28 19:50:26;;;;;;;36.25;20.92;;;7.90;94.20;;;;;;5010838;28;20034;-71
2021/10/28 19:52:52;;;;;;;35.55;20.13;;;7.80;94.20;;;;;;5008330;28;20474;-72
2021/10/28 19:55:19;;;;;;;35.17;19.60;;;7.80;94.20;;;;;;5001737;28;20051;-72
2021/10/28 19:57:50;;;;;;;37.42;20.30;;;7.80;94.20;;;;;;5010427;28;20030;-73
2021/10/28 20:21:07;;;;;;;39.88;20.67;;;7.60;94.50;;;;;;5001013;28;20399;-72
2021/10/28 20:23:33;;;;;;;37.10;20.35;;;7.60;94.50;;;;;;5003164;28;20018;-72
2021/10/28 20:25:59;;;;;;;35.28;19.17;;;7.60;94.60;;;;;;4987028;28;20035;-72
2021/10/28 20:28:26;;;;;;;33.10;18.52;;;7.60;94.60;;;;;;4994403;28;20483;-72
2021/10/28 20:30:55;;;;;;;49.33;28.35;;;7.70;94.70;;;;;;4985234;28;20022;-73
2021/10/28 20:33:27;;;;;;;36.67;22.27;;;7.70;94.60;;;;;;5010429;28;20022;-72
2021/10/28 20:38:25;;;;;;;28.70;18.08;;;7.80;94.50;;;;;;5000612;28;20026;-71
2021/10/28 20:40:50;;;;;;;32.35;18.33;;;7.80;94.50;;;;;;4997385;28;20072;-72
2021/10/28 20:43:16;;;;;;;32.97;17.95;;;7.70;94.40;;;;;;5010205;28;20030;-73
2021/10/28 20:45:42;;;;;;;32.65;18.80;;;7.70;94.30;;;;;;4996591;28;20030;-71
2021/10/28 20:48:08;;;;;;;31.83;17.67;;;7.60;94.30;;;;;;5008554;28;20435;-73
2021/10/28 20:50:35;;;;;;;33.25;18.40;;;7.60;94.40;;;;;;4987938;28;20045;-71
2021/10/28 20:53:02;;;;;;;31.52;18.33;;;7.50;94.40;;;;;;5005334;28;20018;-72
2021/10/28 20:55:27;;;;;;;33.58;17.65;;;7.50;94.40;;;;;;5017696;28;20033;-70
2021/10/28 20:57:54;;;;;;;29.15;17.48;;;7.40;94.40;;;;;;5011581;28;20026;-71
2021/10/28 21:00:22;;;;;;;30.42;17.23;;;7.40;94.50;;;;;;4983985;28;20034;-71
2021/10/28 21:02:48;;;;;;;30.42;18.00;;;7.40;94.50;;;;;;5011843;28;20045;-71
2021/10/28 21:05:19;;;;;;;32.30;18.10;;;7.40;94.50;;;;;;4998989;23;20045;-72
2021/10/28 21:07:45;;;;;;;30.00;17.23;;;7.40;94.50;;;;;;5001609;28;20433;-74
2021/10/28 21:10:13;;;;;;;28.05;17.02;;;7.40;94.50;;;;;;4986216;28;20578;-74
2021/10/28 21:12:39;;;;;;;25.95;16.50;;;7.40;94.50;;;;;;5000885;28;20065;-72
2021/10/28 21:15:05;;;;;;;26.23;15.82;;;7.40;94.50;;;;;;5017488;28;20072;-72
2021/10/28 21:17:31;;;;;;;29.40;16.40;;;7.30;94.40;;;;;;5007671;28;20478;-73
2021/10/28 21:19:57;;;;;;;26.02;16.02;;;7.40;94.50;;;;;;5003534;28;20030;-75
2021/10/28 21:22:23;;;;;;;28.27;16.92;;;7.40;94.50;;;;;;4989093;28;20096;-71
2021/10/28 21:24:50;;;;;;;26.38;15.40;;;7.30;94.40;;;;;;5008399;28;20026;-71
2021/10/28 21:27:17;;;;;;;26.73;16.60;;;7.30;94.40;;;;;;5009961;28;20023;-71
2021/10/28 21:29:43;;;;;;;32.42;17.02;;;7.30;94.30;;;;;;4991948;28;20413;-71
2021/10/28 21:32:09;;;;;;;32.72;16.65;;;7.30;94.20;;;;;;4994557;28;20036;-72
2021/10/28 21:34:37;;;;;;;28.20;17.38;;;7.20;94.30;;;;;;5002491;28;20374;-71
2021/10/28 21:37:04;;;;;;;31.23;17.55;;;7.10;94.40;;;;;;4979531;28;20117;-72
2021/10/28 21:39:31;;;;;;;28.73;16.40;;;7.10;94.40;;;;;;4997402;28;20030;-71
2021/10/28 21:41:57;;;;;;;29.52;17.60;;;7.10;94.40;;;;;;4997615;28;20076;-72
2021/10/28 21:44:23;;;;;;;31.83;17.88;;;7.10;94.40;;;;;;5002265;28;20487;-72
2021/10/28 21:46:49;;;;;;;30.67;17.83;;;7.10;94.40;;;;;;5008442;28;20030;-71